Time,TemperatureF,DewpointF,PressureIn,WindDirection,WindDirectionDegrees,WindSpeedMPH,WindSpeedGustMPH,Humidity,HourlyPrecipIn,Conditions,Clouds,dailyrainin,SoftwareType,DateUTC
2013-11-10 00:05:00,76.5,76.5,29.96,NNE,13,7.0,7.0,100,0.00,,,0.00,Wunderground v.1.15,2013-11-10 05:05:00,
2013-11-10 00:10:00,76.3,76.3,29.96,North,6,6.0,7.0,100,0.00,,,0.00,Wunderground v.1.15,2013-11-10 05:10:00,
2013-11-10 00:15:00,76.3,76.3,29.96,North,10,5.0,7.0,100,0.00,,,0.00,Wunderground v.1.15,2013-11-10 05:15:00,
2013-11-10 00:20:00,76.3,76.3,29.96,North,0,5.0,5.0,100,0.00,,,0.00,Wunderground v.1.15,2013-11-10 05:20:00,
2013-11-10 00:25:00,76.5,76.5,29.96,North,7,5.0,5.0,100,0.00,,,0.00,Wunderground v.1.15,2013-11-10 05:25:00,
2013-11-10 00:35:00,76.3,76.3,29.96,NNE,14,5.0,7.0,100,0.00,,,0.00,Wunderground v.1.15,2013-11-10 05:35:00,
2013-11-10 00:40:00,76.3,76.3,29.96,North,8,5.0,8.0,100,0.00,,,0.00,Wunderground v.1.15,2013-11-10 05:40:00,
2013-11-10 00:50:00,76.3,76.3,29.95,North,1,6.0,6.0,100,0.00,,,0.00,Wunderground v.1.15,2013-11-10 05:50:00,
2013-11-10 01:00:00,76.1,76.1,29.95,North,7,7.0,7.0,100,0.00,,,0.00,Wunderground v.1.15,2013-11-10 06:00:00,
2013-11-10 01:05:00,76.1,76.1,29.95,North,10,5.0,7.0,100,0.00,,,0.00,Wunderground v.1.15,2013-11-10 06:05:00,
2013-11-10 01:15:00,76.1,76.1,29.94,NNE,23,2.0,3.0,100,0.00,,,0.00,Wunderground v.1.15,2013-11-10 06:15:00,
2013-11-10 01:20:00,76.1,76.1,29.94,North,0,2.0,2.0,100,0.00,,,0.00,Wunderground v.1.15,2013-11-10 06:20:00,
2013-11-10 01:30:00,76.1,76.1,29.94,NNE,20,3.0,4.0,100,0.00,,,0.00,Wunderground v.1.15,2013-11-10 06:30:00,
2013-11-10 01:35:00,76.1,76.1,29.94,North,10,3.0,5.0,100,0.00,,,0.00,Wunderground v.1.15,2013-11-10 06:35:00,
2013-11-10 01:45:00,76.3,76.3,29.93,North,6,4.0,6.0,100,0.00,,,0.00,Wunderground v.1.15,2013-11-10 06:45:00,
2013-11-10 01:55:00,76.5,76.5,29.93,NNE,13,2.0,3.0,100,0.00,,,0.00,Wunderground v.1.15,2013-11-10 06:55:00,
2013-11-10 02:00:00,76.5,76.5,29.93,NNE,14,2.0,2.0,100,0.00,,,0.00,Wunderground v.1.15,2013-11-10 07:00:00,
2013-11-10 02:10:00,76.7,76.7,29.93,NNE,13,2.0,2.0,100,0.00,,,0.00,Wunderground v.1.15,2013-11-10 07:10:00,
2013-11-10 02:15:00,76.7,76.7,29.93,North,10,2.0,2.0,100,0.00,,,0.00,Wunderground v.1.15,2013-11-10 07:15:00,
2013-11-10 02:25:00,76.7,76.7,29.93,NNE,13,2.0,3.0,100,0.00,,,0.00,Wunderground v.1.15,2013-11-10 07:25:00,
2013-11-10 02:30:00,76.7,76.7,29.93,North,11,2.0,5.0,100,0.00,,,0.00,Wunderground v.1.15,2013-11-10 07:30:00,
2013-11-10 02:40:00,76.8,76.8,29.93,NNE,14,3.0,3.0,100,0.00,,,0.00,Wunderground v.1.15,2013-11-10 07:40:00,
2013-11-10 02:50:00,77.0,77.0,29.93,North,8,3.0,4.0,100,0.00,,,0.00,Wunderground v.1.15,2013-11-10 07:50:00,
2013-11-10 02:55:00,77.0,77.0,29.93,North,8,3.0,6.0,100,0.00,,,0.00,Wunderground v.1.15,2013-11-10 07:55:00,
2013-11-10 03:00:00,77.0,77.0,29.93,NNE,13,3.0,3.0,100,0.00,,,0.00,Wunderground v.1.15,2013-11-10 08:00:00,
2013-11-10 03:10:00,77.0,77.0,29.93,NNE,16,2.0,6.0,100,0.00,,,0.00,Wunderground v.1.15,2013-11-10 08:10:00,
2013-11-10 03:20:00,77.2,77.2,29.92,NNE,20,1.0,1.0,100,0.00,,,0.00,Wunderground v.1.15,2013-11-10 08:20:00,
2013-11-10 03:25:00,77.2,77.2,29.92,NNE,20,1.0,1.0,100,0.00,,,0.00,Wunderground v.1.15,2013-11-10 08:25:00,
2013-11-10 03:35:00,77.2,77.2,29.92,NNE,16,0.0,2.0,100,0.00,,,0.00,Wunderground v.1.15,2013-11-10 08:35:00,
2013-11-10 03:45:00,77.2,77.2,29.92,NNE,16,0.0,0.0,100,0.00,,,0.00,Wunderground v.1.15,2013-11-10 08:45:00,
2013-11-10 03:50:00,77.4,77.4,29.92,East,85,0.0,4.0,100,0.00,,,0.00,Wunderground v.1.15,2013-11-10 08:50:00,
2013-11-10 04:05:00,78.1,78.1,29.92,East,93,2.0,3.0,100,0.00,,,0.00,Wunderground v.1.15,2013-11-10 09:05:00,
2013-11-10 04:10:00,78.5,78.5,29.92,ENE,75,3.0,4.0,100,0.00,,,0.00,Wunderground v.1.15,2013-11-10 09:10:00,
2013-11-10 04:20:00,78.8,78.8,29.92,East,99,4.0,4.0,100,0.00,,,0.00,Wunderground v.1.15,2013-11-10 09:20:00,
2013-11-10 04:25:00,78.8,78.8,29.92,ENE,72,3.0,4.0,100,0.00,,,0.00,Wunderground v.1.15,2013-11-10 09:25:00,
2013-11-10 04:35:00,79.2,79.2,29.92,ENE,64,4.0,7.0,100,0.00,,,0.00,Wunderground v.1.15,2013-11-10 09:35:00,
2013-11-10 04:40:00,79.4,79.4,29.92,NE,54,4.0,5.0,100,0.00,,,0.00,Wunderground v.1.15,2013-11-10 09:40:00,
2013-11-10 04:50:00,79.4,79.4,29.92,ENE,61,4.0,7.0,100,0.00,,,0.00,Wunderground v.1.15,2013-11-10 09:50:00,
2013-11-10 05:00:00,79.2,79.2,29.92,ENE,73,7.0,11.0,100,0.00,,,0.00,Wunderground v.1.15,2013-11-10 10:00:00,
2013-11-10 05:05:00,79.2,79.2,29.92,ENE,71,8.0,11.0,100,0.00,,,0.00,Wunderground v.1.15,2013-11-10 10:05:00,
2013-11-10 05:15:00,79.2,79.2,29.93,NE,41,8.0,9.0,100,0.00,,,0.00,Wunderground v.1.15,2013-11-10 10:15:00,
2013-11-10 05:25:00,79.2,79.2,29.93,ENE,58,7.0,8.0,100,0.00,,,0.00,Wunderground v.1.15,2013-11-10 10:25:00,
2013-11-10 05:35:00,79.4,79.4,29.93,East,79,7.0,7.0,100,0.00,,,0.00,Wunderground v.1.15,2013-11-10 10:35:00,
2013-11-10 05:45:00,79.4,79.4,29.94,ENE,64,6.0,7.0,100,0.00,,,0.00,Wunderground v.1.15,2013-11-10 10:45:00,
2013-11-10 05:55:00,79.2,79.2,29.94,NE,52,5.0,6.0,100,0.00,,,0.00,Wunderground v.1.15,2013-11-10 10:55:00,
2013-11-10 06:00:00,79.4,79.4,29.94,NE,54,5.0,7.0,100,0.00,,,0.00,Wunderground v.1.15,2013-11-10 11:00:00,
2013-11-10 06:05:00,79.4,79.4,29.94,East,90,5.0,7.0,100,0.00,,,0.00,Wunderground v.1.15,2013-11-10 11:05:00,
2013-11-10 06:15:00,79.0,79.0,29.95,ENE,68,4.0,7.0,100,0.00,,,0.00,Wunderground v.1.15,2013-11-10 11:15:00,
2013-11-10 06:25:00,79.0,79.0,29.95,East,89,5.0,8.0,100,0.00,,,0.00,Wunderground v.1.15,2013-11-10 11:25:00,
2013-11-10 06:35:00,78.8,78.8,29.95,East,79,6.0,6.0,100,0.00,,,0.00,Wunderground v.1.15,2013-11-10 11:35:00,
2013-11-10 06:45:00,79.2,79.2,29.96,ENE,61,6.0,6.0,100,0.00,,,0.00,Wunderground v.1.15,2013-11-10 11:45:00,
2013-11-10 06:55:00,78.8,78.8,29.96,NE,51,3.0,5.0,100,0.00,,,0.00,Wunderground v.1.15,2013-11-10 11:55:00,
2013-11-10 07:00:00,79.0,79.0,29.96,ENE,78,4.0,4.0,100,0.00,,,0.00,Wunderground v.1.15,2013-11-10 12:00:00,
2013-11-10 07:10:00,79.0,79.0,29.96,ENE,72,6.0,7.0,100,0.00,,,0.00,Wunderground v.1.15,2013-11-10 12:10:00,
2013-11-10 07:20:00,79.6,79.6,29.97,East,82,4.0,6.0,100,0.00,,,0.00,Wunderground v.1.15,2013-11-10 12:20:00,
2013-11-10 07:30:00,79.6,79.6,29.97,ENE,62,7.0,7.0,100,0.00,,,0.01,Wunderground v.1.15,2013-11-10 12:30:00,
2013-11-10 07:40:00,79.8,79.8,29.97,ENE,61,4.0,5.0,100,0.00,,,0.01,Wunderground v.1.15,2013-11-10 12:40:00,
2013-11-10 07:45:00,79.9,79.9,29.97,ENE,69,3.0,5.0,100,0.00,,,0.01,Wunderground v.1.15,2013-11-10 12:45:00,
2013-11-10 07:55:00,80.1,80.1,29.97,NE,51,5.0,6.0,100,0.00,,,0.01,Wunderground v.1.15,2013-11-10 12:55:00,
2013-11-10 08:05:00,79.6,79.6,29.97,ENE,68,5.0,7.0,100,0.00,,,0.01,Wunderground v.1.15,2013-11-10 13:05:00,
2013-11-10 08:15:00,78.8,78.8,29.98,NE,56,8.0,9.0,100,0.00,,,0.01,Wunderground v.1.15,2013-11-10 13:15:00,
2013-11-10 08:25:00,78.8,78.8,29.98,ENE,66,6.0,7.0,100,0.00,,,0.01,Wunderground v.1.15,2013-11-10 13:25:00,
2013-11-10 08:30:00,79.2,79.2,29.98,NE,56,4.0,4.0,100,0.00,,,0.01,Wunderground v.1.15,2013-11-10 13:30:00,
2013-11-10 08:40:00,79.9,79.9,29.98,ENE,61,7.0,8.0,100,0.00,,,0.01,Wunderground v.1.15,2013-11-10 13:40:00,
2013-11-10 08:50:00,80.1,80.1,29.98,NE,47,6.0,13.0,100,0.00,,,0.01,Wunderground v.1.15,2013-11-10 13:50:00,
2013-11-10 08:55:00,79.9,79.9,29.98,NE,49,6.0,13.0,100,0.00,,,0.01,Wunderground v.1.15,2013-11-10 13:55:00,
2013-11-10 09:05:00,79.4,79.4,29.98,ENE,64,8.0,10.0,100,0.00,,,0.01,Wunderground v.1.15,2013-11-10 14:05:00,
2013-11-10 09:15:00,80.1,80.1,29.99,NNE,18,6.0,8.0,100,0.00,,,0.01,Wunderground v.1.15,2013-11-10 14:15:00,
2013-11-10 09:20:00,79.8,79.8,29.99,NE,55,6.0,6.0,100,0.00,,,0.01,Wunderground v.1.15,2013-11-10 14:20:00,
2013-11-10 09:30:00,80.1,80.1,30.00,NNE,28,6.0,8.0,100,0.00,,,0.01,Wunderground v.1.15,2013-11-10 14:30:00,
2013-11-10 09:40:00,80.5,80.5,30.00,ENE,64,6.0,10.0,100,0.00,,,0.01,Wunderground v.1.15,2013-11-10 14:40:00,
2013-11-10 09:45:00,80.5,80.5,30.00,NNE,18,7.0,10.0,100,0.00,,,0.01,Wunderground v.1.15,2013-11-10 14:45:00,
2013-11-10 09:55:00,80.7,80.7,30.00,NNE,31,8.0,11.0,100,0.00,,,0.01,Wunderground v.1.15,2013-11-10 14:55:00,
2013-11-10 10:05:00,81.1,81.1,29.99,NNE,14,7.0,8.0,100,0.00,,,0.01,Wunderground v.1.15,2013-11-10 15:05:00,
2013-11-10 10:10:00,81.2,81.2,29.99,ENE,59,6.0,6.0,100,0.00,,,0.01,Wunderground v.1.15,2013-11-10 15:10:00,
2013-11-10 10:20:00,81.2,81.2,29.99,ENE,64,7.0,7.0,100,0.00,,,0.01,Wunderground v.1.15,2013-11-10 15:20:00,
2013-11-10 10:30:00,81.4,81.4,29.99,ENE,66,7.0,10.0,100,0.00,,,0.01,Wunderground v.1.15,2013-11-10 15:30:00,
2013-11-10 10:40:00,81.6,81.6,29.99,NE,47,7.0,8.0,100,0.00,,,0.01,Wunderground v.1.15,2013-11-10 15:40:00,
2013-11-10 10:50:00,81.6,81.6,29.99,NE,51,6.0,6.0,100,0.00,,,0.01,Wunderground v.1.15,2013-11-10 15:50:00,
2013-11-10 11:00:00,81.6,81.6,29.98,NNE,13,8.0,8.0,100,0.00,,,0.01,Wunderground v.1.15,2013-11-10 16:00:00,
2013-11-10 11:10:00,81.6,81.6,29.98,NNE,18,7.0,16.0,100,0.00,,,0.01,Wunderground v.1.15,2013-11-10 16:10:00,
2013-11-10 11:20:00,80.1,80.1,29.98,North,10,9.0,9.0,100,0.00,,,0.01,Wunderground v.1.15,2013-11-10 16:20:00,
2013-11-10 11:30:00,78.6,78.6,29.98,North,8,6.0,10.0,100,0.00,,,0.02,Wunderground v.1.15,2013-11-10 16:30:00,
2013-11-10 11:40:00,77.9,77.9,29.98,North,8,7.0,13.0,100,0.00,,,0.02,Wunderground v.1.15,2013-11-10 16:40:00,
2013-11-10 11:50:00,77.2,77.2,29.97,NNE,13,8.0,8.0,100,0.00,,,0.03,Wunderground v.1.15,2013-11-10 16:50:00,
2013-11-10 11:55:00,77.2,77.2,29.97,NE,34,6.0,8.0,100,0.14,,,0.04,Wunderground v.1.15,2013-11-10 16:55:00,
2013-11-10 12:05:00,77.0,77.0,29.97,NNE,25,6.0,6.0,100,0.21,,,0.05,Wunderground v.1.15,2013-11-10 17:05:00,
2013-11-10 12:15:00,77.0,77.0,29.97,NNE,14,2.0,5.0,100,0.05,,,0.05,Wunderground v.1.15,2013-11-10 17:15:00,
2013-11-10 12:25:00,78.1,78.1,29.97,ENE,59,4.0,10.0,100,0.00,,,0.05,Wunderground v.1.15,2013-11-10 17:25:00,
2013-11-10 12:35:00,79.8,79.8,29.95,East,80,9.0,11.0,100,0.00,,,0.05,Wunderground v.1.15,2013-11-10 17:35:00,
2013-11-10 12:45:00,80.1,80.1,29.94,ENE,73,9.0,13.0,100,0.00,,,0.05,Wunderground v.1.15,2013-11-10 17:45:00,
2013-11-10 12:50:00,80.1,80.1,29.94,ENE,64,8.0,8.0,100,0.00,,,0.05,Wunderground v.1.15,2013-11-10 17:50:00,
2013-11-10 13:00:00,80.7,80.7,29.94,NE,55,7.0,7.0,100,0.00,,,0.05,Wunderground v.1.15,2013-11-10 18:00:00,
2013-11-10 13:10:00,80.5,80.5,29.94,ENE,59,7.0,7.0,100,0.00,,,0.05,Wunderground v.1.15,2013-11-10 18:10:00,
2013-11-10 13:20:00,79.4,79.4,29.94,NE,49,11.0,14.0,100,0.00,,,0.05,Wunderground v.1.15,2013-11-10 18:20:00,
2013-11-10 13:25:00,79.6,79.6,29.94,ENE,59,11.0,14.0,100,0.00,,,0.05,Wunderground v.1.15,2013-11-10 18:25:00,
2013-11-10 13:35:00,78.8,78.8,29.94,NE,49,8.0,11.0,100,0.00,,,0.05,Wunderground v.1.15,2013-11-10 18:35:00,
2013-11-10 13:45:00,77.4,77.4,29.94,North,0,6.0,11.0,100,0.16,,,0.07,Wunderground v.1.15,2013-11-10 18:45:00,
2013-11-10 13:55:00,77.0,77.0,29.94,North,3,6.0,6.0,100,0.05,,,0.07,Wunderground v.1.15,2013-11-10 18:55:00,
2013-11-10 14:00:00,76.7,76.7,29.93,NNE,14,5.0,7.0,100,0.04,,,0.08,Wunderground v.1.15,2013-11-10 19:00:00,
2013-11-10 14:10:00,76.0,76.0,29.93,North,6,7.0,8.0,100,0.53,,,0.13,Wunderground v.1.15,2013-11-10 19:10:00,
2013-11-10 14:20:00,75.6,75.6,29.94,North,6,9.0,11.0,100,1.18,,,0.33,Wunderground v.1.15,2013-11-10 19:20:00,
2013-11-10 14:30:00,74.0,74.0,29.94,North,1,10.0,10.0,100,0.99,,,0.50,Wunderground v.1.15,2013-11-10 19:30:00,
2013-11-10 14:35:00,74.0,74.0,29.94,NE,55,10.0,10.0,100,1.40,,,0.61,Wunderground v.1.15,2013-11-10 19:35:00,
2013-11-10 14:45:00,73.5,73.5,29.94,North,8,7.0,9.0,100,0.73,,,0.73,Wunderground v.1.15,2013-11-10 19:45:00,
2013-11-10 14:55:00,73.7,73.7,29.94,North,8,5.0,6.0,100,1.00,,,0.87,Wunderground v.1.15,2013-11-10 19:55:00,
2013-11-10 15:00:00,74.2,74.2,29.94,NNE,16,4.0,10.0,100,1.25,,,0.95,Wunderground v.1.15,2013-11-10 20:00:00,
2013-11-10 15:10:00,73.7,73.7,29.94,NE,42,5.0,6.0,100,1.48,,,1.07,Wunderground v.1.15,2013-11-10 20:10:00,
2013-11-10 15:20:00,73.5,73.5,29.95,North,8,3.0,3.0,100,0.71,,,1.37,Wunderground v.1.15,2013-11-10 20:20:00,
2013-11-10 15:25:00,73.5,73.5,29.95,ENE,59,1.0,3.0,100,0.45,,,1.42,Wunderground v.1.15,2013-11-10 20:25:00,
2013-11-10 15:35:00,74.2,74.2,29.93,ENE,58,1.0,1.0,100,0.30,,,1.47,Wunderground v.1.15,2013-11-10 20:35:00,
2013-11-10 15:45:00,74.6,74.6,29.92,ENE,58,0.0,0.0,100,0.09,,,1.48,Wunderground v.1.15,2013-11-10 20:45:00,
2013-11-10 15:50:00,74.7,74.7,29.92,ENE,58,0.0,0.0,100,0.08,,,1.49,Wunderground v.1.15,2013-11-10 20:50:00,
2013-11-10 16:00:00,75.3,75.3,29.92,East,80,1.0,5.0,100,0.07,,,1.50,Wunderground v.1.15,2013-11-10 21:00:00,
2013-11-10 16:10:00,75.6,75.6,29.92,NE,41,3.0,3.0,100,0.04,,,1.50,Wunderground v.1.15,2013-11-10 21:10:00,
2013-11-10 16:15:00,75.8,75.8,29.92,ENE,68,2.0,4.0,100,0.00,,,1.50,Wunderground v.1.15,2013-11-10 21:15:00,
2013-11-10 16:25:00,76.1,76.1,29.92,ENE,58,1.0,6.0,100,0.00,,,1.50,Wunderground v.1.15,2013-11-10 21:25:00,
2013-11-10 16:30:00,76.1,76.1,29.92,NNE,13,1.0,1.0,100,0.00,,,1.50,Wunderground v.1.15,2013-11-10 21:30:00,
2013-11-10 16:40:00,76.5,76.5,29.92,North,6,3.0,3.0,100,0.00,,,1.50,Wunderground v.1.15,2013-11-10 21:40:00,
2013-11-10 16:45:00,76.5,76.5,29.92,NE,41,4.0,4.0,100,0.00,,,1.50,Wunderground v.1.15,2013-11-10 21:45:00,
2013-11-10 16:55:00,76.5,76.5,29.92,NNE,20,3.0,3.0,100,0.00,,,1.50,Wunderground v.1.15,2013-11-10 21:55:00,
2013-11-10 17:00:00,76.7,76.7,29.92,NNE,14,4.0,4.0,100,0.00,,,1.50,Wunderground v.1.15,2013-11-10 22:00:00,
2013-11-10 17:11:00,76.8,76.8,29.92,North,6,5.0,7.0,100,0.00,,,1.50,Wunderground v.1.15,2013-11-10 22:11:00,
2013-11-10 17:20:00,77.0,77.0,29.92,North,6,6.0,10.0,100,0.00,,,1.50,Wunderground v.1.15,2013-11-10 22:20:00,
2013-11-10 17:25:00,77.0,77.0,29.92,NNE,13,6.0,10.0,100,0.00,,,1.50,Wunderground v.1.15,2013-11-10 22:25:00,
2013-11-10 17:35:00,76.8,76.8,29.93,NNE,20,5.0,6.0,100,0.00,,,1.50,Wunderground v.1.15,2013-11-10 22:35:00,
2013-11-10 17:40:00,76.8,76.8,29.93,NNE,24,4.0,5.0,100,0.00,,,1.50,Wunderground v.1.15,2013-11-10 22:40:00,
2013-11-10 17:50:00,76.8,76.8,29.94,NE,37,4.0,4.0,100,0.00,,,1.50,Wunderground v.1.15,2013-11-10 22:50:00,
2013-11-10 17:55:00,76.8,76.8,29.94,North,6,4.0,8.0,100,0.00,,,1.50,Wunderground v.1.15,2013-11-10 22:55:00,
2013-11-10 18:05:00,77.0,77.0,29.95,NNE,21,5.0,5.0,100,0.00,,,1.50,Wunderground v.1.15,2013-11-10 23:05:00,
2013-11-10 18:15:00,77.0,77.0,29.94,NNE,32,5.0,7.0,100,0.00,,,1.50,Wunderground v.1.15,2013-11-10 23:15:00,
2013-11-10 18:25:00,77.0,77.0,29.94,NNE,14,4.0,4.0,100,0.00,,,1.50,Wunderground v.1.15,2013-11-10 23:25:00,
2013-11-10 18:30:00,77.2,77.2,29.95,North,8,4.0,4.0,100,0.00,,,1.50,Wunderground v.1.15,2013-11-10 23:30:00,
2013-11-10 18:40:00,77.2,77.2,29.95,NE,51,5.0,5.0,100,0.00,,,1.50,Wunderground v.1.15,2013-11-10 23:40:00,
2013-11-10 18:50:00,77.4,77.4,29.95,NE,42,4.0,4.0,100,0.00,,,1.50,Wunderground v.1.15,2013-11-10 23:50:00,
2013-11-10 18:55:00,77.4,77.4,29.95,NNE,28,4.0,7.0,100,0.00,,,1.50,Wunderground v.1.15,2013-11-10 23:55:00,
2013-11-10 19:05:00,77.6,77.6,29.95,NE,35,4.0,4.0,100,0.00,,,1.50,Wunderground v.1.15,2013-11-11 00:05:00,
2013-11-10 19:15:00,77.6,77.6,29.95,NE,51,4.0,4.0,100,0.00,,,1.50,Wunderground v.1.15,2013-11-11 00:15:00,
2013-11-10 19:25:00,77.6,77.6,29.95,NE,34,3.0,4.0,100,0.00,,,1.50,Wunderground v.1.15,2013-11-11 00:25:00,
2013-11-10 19:30:00,77.6,77.6,29.95,NNE,25,3.0,3.0,100,0.00,,,1.50,Wunderground v.1.15,2013-11-11 00:30:00,
2013-11-10 19:40:00,77.7,77.7,29.95,NNE,17,4.0,5.0,100,0.00,,,1.50,Wunderground v.1.15,2013-11-11 00:40:00,
2013-11-10 19:50:00,77.7,77.7,29.95,NE,34,3.0,6.0,100,0.00,,,1.50,Wunderground v.1.15,2013-11-11 00:50:00,
2013-11-10 19:55:00,77.9,77.9,29.95,NNE,18,4.0,6.0,100,0.00,,,1.50,Wunderground v.1.15,2013-11-11 00:55:00,
2013-11-10 20:06:00,77.9,77.9,29.96,ENE,69,5.0,7.0,100,0.00,,,1.50,Wunderground v.1.15,2013-11-11 01:06:00,
2013-11-10 20:15:00,77.9,77.9,29.96,North,10,5.0,8.0,100,0.00,,,1.50,Wunderground v.1.15,2013-11-11 01:15:00,
2013-11-10 20:20:00,78.1,78.1,29.96,NNE,16,4.0,4.0,100,0.00,,,1.50,Wunderground v.1.15,2013-11-11 01:20:00,
2013-11-10 20:30:00,77.9,77.9,29.96,NNE,20,5.0,5.0,100,0.00,,,1.50,Wunderground v.1.15,2013-11-11 01:30:00,
2013-11-10 20:40:00,77.9,77.9,29.96,NE,44,4.0,4.0,100,0.00,,,1.50,Wunderground v.1.15,2013-11-11 01:40:00,
2013-11-10 20:45:00,77.9,77.9,29.95,North,11,4.0,6.0,100,0.00,,,1.50,Wunderground v.1.15,2013-11-11 01:45:00,
2013-11-10 20:50:00,77.7,77.7,29.95,NE,55,4.0,4.0,100,0.00,,,1.50,Wunderground v.1.15,2013-11-11 01:50:00,
2013-11-10 21:00:00,77.7,77.7,29.96,NE,37,4.0,4.0,100,0.00,,,1.50,Wunderground v.1.15,2013-11-11 02:00:00,
2013-11-10 21:05:00,77.7,77.7,29.96,NNE,18,3.0,7.0,100,0.00,,,1.50,Wunderground v.1.15,2013-11-11 02:05:00,
2013-11-10 21:15:00,77.7,77.7,29.96,NNE,24,5.0,6.0,100,0.00,,,1.50,Wunderground v.1.15,2013-11-11 02:15:00,
2013-11-10 21:25:00,77.7,77.7,29.96,NE,42,4.0,4.0,100,0.00,,,1.50,Wunderground v.1.15,2013-11-11 02:25:00,
2013-11-10 21:30:00,77.7,77.7,29.97,NNE,24,3.0,3.0,100,0.00,,,1.50,Wunderground v.1.15,2013-11-11 02:30:00,
2013-11-10 21:40:00,77.9,77.9,29.97,North,6,4.0,11.0,100,0.00,,,1.50,Wunderground v.1.15,2013-11-11 02:40:00,
2013-11-10 21:50:00,77.9,77.9,29.97,NNE,23,5.0,5.0,100,0.00,,,1.50,Wunderground v.1.15,2013-11-11 02:50:00,
2013-11-10 21:55:00,78.1,78.1,29.97,NNE,17,5.0,5.0,100,0.00,,,1.50,Wunderground v.1.15,2013-11-11 02:55:00,
2013-11-10 22:05:00,77.9,77.9,29.97,North,4,5.0,6.0,100,0.00,,,1.50,Wunderground v.1.15,2013-11-11 03:05:00,
2013-11-10 22:10:00,77.9,77.9,29.97,NE,37,6.0,6.0,100,0.00,,,1.50,Wunderground v.1.15,2013-11-11 03:10:00,
2013-11-10 22:20:00,77.9,77.9,29.97,NNE,14,5.0,9.0,100,0.00,,,1.50,Wunderground v.1.15,2013-11-11 03:20:00,
2013-11-10 22:25:00,77.9,77.9,29.97,NNE,32,5.0,9.0,100,0.00,,,1.50,Wunderground v.1.15,2013-11-11 03:25:00,
2013-11-10 22:35:00,77.7,77.7,29.97,NE,55,5.0,5.0,100,0.00,,,1.50,Wunderground v.1.15,2013-11-11 03:35:00,
2013-11-10 22:40:00,77.7,77.7,29.97,NE,51,5.0,5.0,100,0.00,,,1.50,Wunderground v.1.15,2013-11-11 03:40:00,
2013-11-10 22:50:00,77.7,77.7,29.97,NNE,31,3.0,3.0,100,0.00,,,1.50,Wunderground v.1.15,2013-11-11 03:50:00,
2013-11-10 22:55:00,77.7,77.7,29.97,ENE,58,4.0,4.0,100,0.00,,,1.50,Wunderground v.1.15,2013-11-11 03:55:00,
2013-11-10 23:05:00,77.7,77.7,29.96,NNE,17,5.0,6.0,100,0.00,,,1.50,Wunderground v.1.15,2013-11-11 04:05:00,
2013-11-10 23:10:00,77.7,77.7,29.96,NE,51,4.0,4.0,100,0.00,,,1.50,Wunderground v.1.15,2013-11-11 04:10:00,
2013-11-10 23:20:00,77.6,77.6,29.97,North,7,4.0,6.0,100,0.00,,,1.50,Wunderground v.1.15,2013-11-11 04:20:00,
2013-11-10 23:25:00,77.4,77.4,29.97,NE,48,5.0,6.0,100,0.00,,,1.50,Wunderground v.1.15,2013-11-11 04:25:00,
2013-11-10 23:45:00,77.2,77.2,29.96,North,10,4.0,5.0,100,0.00,,,1.50,Wunderground v.1.15,2013-11-11 04:45:00,
2013-11-10 23:50:00,77.2,77.2,29.96,North,4,4.0,5.0,100,0.00,,,1.50,Wunderground v.1.15,2013-11-11 04:50:00,